createdAt,value
2019-03-03T00:00:04.529Z,23.30
2019-03-03T00:02:51.779Z,22.87
2019-03-03T00:05:33.794Z,21.03
2019-03-03T00:08:15.621Z,18.67
2019-03-03T00:10:58.034Z,25.70
2019-03-03T00:13:40.301Z,19.73
2019-03-03T00:16:24.011Z,19.10
2019-03-03T00:19:05.876Z,17.17
2019-03-03T00:21:48.174Z,17.00
2019-03-03T00:24:31.053Z,18.13
2019-03-03T00:27:13.533Z,15.60
2019-03-03T00:29:56.396Z,18.80
2019-03-03T00:32:40.475Z,19.93
2019-03-03T00:35:23.489Z,20.83
2019-03-03T00:38:27.337Z,15.73
2019-03-03T00:41:29.430Z,16.90
2019-03-03T00:44:30.390Z,20.23
2019-03-03T00:47:31.433Z,16.57
2019-03-03T00:50:36.132Z,16.17
2019-03-03T00:53:42.170Z,15.80
2019-03-03T00:56:31.352Z,16.30
2019-03-03T00:59:32.593Z,15.17
2019-03-03T01:02:36.278Z,18.98
2019-03-03T01:05:38.480Z,18.30
2019-03-03T01:08:39.508Z,17.30
2019-03-03T01:11:43.346Z,15.97
2019-03-03T01:14:44.748Z,17.73
2019-03-03T01:17:29.190Z,15.00
2019-03-03T01:20:36.768Z,17.57
2019-03-03T01:23:37.526Z,17.13
2019-03-03T01:26:21.397Z,16.17
2019-03-03T01:29:06.292Z,14.27
2019-03-03T01:31:48.474Z,15.63
2019-03-03T01:34:31.356Z,16.33
2019-03-03T01:37:15.826Z,14.23
2019-03-03T01:39:58.868Z,14.60
2019-03-03T01:42:42.504Z,13.60
2019-03-03T01:45:27.032Z,13.90
2019-03-03T01:48:08.684Z,15.07
2019-03-03T01:50:51.449Z,17.30
2019-03-03T01:53:33.426Z,14.80
2019-03-03T01:56:15.936Z,15.50
2019-03-03T01:58:59.787Z,19.40
2019-03-03T02:01:42.590Z,15.63
2019-03-03T02:04:24.610Z,17.40
2019-03-03T02:07:07.470Z,19.40
2019-03-03T02:09:49.370Z,17.37
2019-03-03T02:12:31.729Z,15.53
2019-03-03T02:15:13.893Z,18.67
2019-03-03T02:17:56.609Z,17.23
2019-03-03T02:20:38.596Z,17.10
2019-03-03T02:23:20.742Z,16.73
2019-03-03T02:26:02.860Z,21.42
2019-03-03T02:28:44.922Z,17.77
2019-03-03T02:31:27.161Z,16.87
2019-03-03T02:34:09.800Z,17.50
2019-03-03T02:36:51.721Z,16.83
2019-03-03T02:39:33.985Z,15.87
2019-03-03T02:42:17.198Z,20.25
2019-03-03T02:44:59.256Z,17.73
2019-03-03T02:47:41.436Z,15.97
2019-03-03T02:50:24.289Z,15.07
2019-03-03T02:53:06.619Z,15.10
2019-03-03T02:55:49.451Z,18.20
2019-03-03T02:58:32.572Z,11.73
2019-03-03T03:04:27.807Z,13.03
2019-03-03T03:07:30.799Z,13.37
2019-03-03T03:10:33.890Z,16.10
2019-03-03T03:13:39.602Z,13.77
2019-03-03T03:16:33.413Z,20.57
2019-03-03T03:19:40.035Z,16.30
2019-03-03T03:22:23.005Z,16.17
2019-03-03T03:25:13.443Z,16.20
2019-03-03T03:28:14.281Z,16.07
2019-03-03T03:30:57.357Z,15.85
2019-03-03T03:33:48.786Z,15.50
2019-03-03T03:36:52.451Z,14.27
2019-03-03T03:42:57.732Z,15.90
2019-03-03T03:46:01.741Z,15.50
2019-03-03T03:49:06.063Z,16.47
2019-03-03T03:51:55.277Z,14.87
2019-03-03T03:54:44.573Z,14.30
2019-03-03T03:57:48.102Z,14.13
2019-03-03T04:00:52.449Z,14.30
2019-03-03T04:06:38.637Z,14.70
2019-03-03T04:09:44.755Z,13.20
2019-03-03T04:12:46.947Z,12.67
2019-03-03T04:15:29.842Z,12.07
2019-03-03T04:18:32.585Z,12.17
2019-03-03T04:21:15.448Z,13.58
2019-03-03T04:24:19.442Z,11.80
2019-03-03T04:27:19.041Z,12.23
2019-03-03T04:30:15.825Z,10.70
2019-03-03T04:33:09.063Z,10.17
2019-03-03T04:35:51.813Z,8.80
2019-03-03T04:38:55.233Z,9.77
2019-03-03T04:41:45.838Z,9.13
2019-03-03T04:44:46.864Z,9.60
2019-03-03T04:47:29.685Z,8.83
2019-03-03T04:53:12.957Z,8.37
2019-03-03T04:56:14.284Z,10.08
2019-03-03T04:59:15.262Z,8.73
2019-03-03T05:02:15.732Z,8.10
2019-03-03T05:05:17.824Z,7.23
2019-03-03T05:08:10.897Z,6.70
2019-03-03T05:10:55.814Z,6.80
2019-03-03T05:13:45.185Z,6.80
2019-03-03T05:16:33.637Z,6.10
2019-03-03T05:19:40.507Z,7.10
2019-03-03T05:22:23.014Z,6.73
2019-03-03T05:25:06.927Z,6.83
2019-03-03T05:27:49.037Z,7.13
2019-03-03T05:30:30.831Z,6.37
2019-03-03T05:33:12.944Z,5.77
2019-03-03T05:35:54.805Z,5.57
2019-03-03T05:38:36.721Z,5.53
2019-03-03T05:41:18.492Z,4.87
2019-03-03T05:44:00.403Z,4.73
2019-03-03T05:46:42.428Z,4.80
2019-03-03T05:49:24.293Z,3.80
2019-03-03T05:52:06.126Z,4.30
2019-03-03T05:54:49.139Z,4.43
2019-03-03T05:57:31.136Z,4.40
2019-03-03T06:00:13.969Z,3.83
2019-03-03T06:02:56.340Z,4.45
2019-03-03T06:05:38.249Z,3.57
2019-03-03T06:08:20.084Z,3.57
2019-03-03T06:10:50.551Z,3.30
2019-03-03T06:13:32.265Z,4.03
2019-03-03T06:16:14.245Z,3.90
2019-03-03T06:18:58.100Z,4.00
2019-03-03T06:21:40.018Z,3.90
2019-03-03T06:24:22.153Z,4.30
2019-03-03T06:27:04.213Z,4.17
2019-03-03T06:29:45.869Z,4.30
2019-03-03T06:32:27.672Z,4.43
2019-03-03T06:35:11.551Z,4.53
2019-03-03T06:37:55.724Z,4.40
2019-03-03T06:40:39.840Z,4.40
2019-03-03T06:43:22.925Z,4.90
2019-03-03T06:46:06.845Z,4.30
2019-03-03T06:48:49.974Z,4.37
2019-03-03T06:51:35.502Z,4.93
2019-03-03T06:54:17.665Z,5.87
2019-03-03T06:56:59.353Z,4.47
2019-03-03T06:59:43.216Z,4.43
2019-03-03T07:02:26.780Z,5.07
2019-03-03T07:05:08.605Z,5.20
2019-03-03T07:07:50.672Z,4.70
2019-03-03T07:10:32.546Z,5.13
2019-03-03T07:13:14.353Z,4.20
2019-03-03T07:15:58.180Z,4.10
2019-03-03T07:18:40.068Z,4.03
2019-03-03T07:21:22.094Z,4.33
2019-03-03T07:24:04.299Z,4.20
2019-03-03T07:26:46.385Z,3.63
2019-03-03T07:29:28.281Z,4.85
2019-03-03T07:32:10.254Z,5.43
2019-03-03T07:34:52.479Z,5.07
2019-03-03T07:37:36.350Z,4.80
2019-03-03T07:40:18.551Z,4.87
2019-03-03T07:43:00.805Z,5.00
2019-03-03T07:45:42.809Z,4.47
2019-03-03T07:48:24.808Z,4.10
2019-03-03T07:54:15.223Z,4.23
2019-03-03T07:56:57.603Z,4.00
2019-03-03T07:59:39.808Z,4.10
2019-03-03T08:02:21.843Z,4.07
2019-03-03T08:05:04.031Z,3.80
2019-03-03T08:07:45.952Z,3.67
2019-03-03T08:10:27.850Z,4.10
2019-03-03T08:13:09.768Z,3.97
2019-03-03T08:15:52.812Z,2.97
2019-03-03T08:18:34.647Z,3.60
2019-03-03T08:21:16.620Z,3.53
2019-03-03T08:23:58.569Z,3.50
2019-03-03T08:26:40.688Z,3.77
2019-03-03T08:29:22.616Z,3.40
2019-03-03T08:32:04.835Z,3.97
2019-03-03T08:34:46.728Z,3.70
2019-03-03T08:37:29.629Z,4.25
2019-03-03T08:40:11.562Z,3.40
2019-03-03T08:42:54.632Z,3.60
2019-03-03T08:48:40.909Z,3.00
2019-03-03T08:51:37.032Z,3.20
2019-03-03T08:54:37.614Z,3.27
2019-03-03T09:00:25.376Z,3.00
2019-03-03T09:03:25.876Z,3.20
2019-03-03T09:06:28.962Z,2.70
2019-03-03T09:09:31.880Z,2.90
2019-03-03T09:15:17.398Z,2.95
2019-03-03T09:18:10.254Z,2.98
2019-03-03T09:24:13.126Z,3.40
2019-03-03T09:27:15.193Z,2.90
2019-03-03T09:30:19.278Z,3.47
2019-03-03T09:33:20.154Z,3.27
2019-03-03T09:36:02.890Z,2.80
2019-03-03T09:39:00.543Z,2.80
2019-03-03T09:42:06.050Z,3.03
2019-03-03T09:45:08.185Z,2.80
2019-03-03T09:48:11.069Z,3.40
2019-03-03T09:51:15.094Z,3.03
2019-03-03T09:54:18.886Z,3.90
2019-03-03T09:57:22.787Z,3.97
2019-03-03T10:00:25.647Z,3.50
2019-03-03T10:03:28.319Z,3.63
2019-03-03T10:06:24.336Z,3.30
2019-03-03T10:09:31.383Z,3.53
2019-03-03T10:15:30.541Z,3.70
2019-03-03T10:18:20.846Z,3.00
2019-03-03T10:21:05.356Z,3.23
2019-03-03T10:30:25.431Z,2.70
2019-03-03T10:33:28.674Z,2.72
2019-03-03T10:36:38.179Z,2.72
2019-03-03T10:39:25.047Z,2.20
2019-03-03T10:42:28.607Z,2.08
2019-03-03T10:45:11.509Z,2.30
2019-03-03T10:48:05.392Z,1.85
2019-03-03T10:51:03.810Z,4.60
2019-03-03T10:54:05.124Z,1.70
2019-03-03T10:56:48.280Z,2.30
2019-03-03T10:59:55.099Z,1.70
2019-03-03T11:02:42.062Z,2.00
2019-03-03T11:05:44.809Z,2.30
2019-03-03T11:08:48.658Z,2.20
2019-03-03T11:14:52.956Z,1.82
2019-03-03T11:17:55.971Z,2.00
2019-03-03T11:20:59.576Z,2.60
2019-03-03T11:26:44.676Z,1.80
2019-03-03T11:29:35.483Z,2.02
2019-03-03T11:32:18.259Z,1.92
2019-03-03T11:35:18.833Z,1.92
2019-03-03T11:38:27.936Z,2.10
2019-03-03T11:41:33.691Z,1.67
2019-03-03T11:44:16.430Z,1.62
2019-03-03T11:53:29.864Z,1.90
2019-03-03T11:56:19.251Z,1.50
2019-03-03T11:59:01.876Z,1.45
2019-03-03T12:05:05.529Z,1.47
2019-03-03T12:13:42.260Z,1.45
2019-03-03T12:16:42.340Z,1.30
2019-03-03T12:19:46.275Z,1.60
2019-03-03T12:22:50.815Z,1.30
2019-03-03T12:25:39.422Z,1.40
2019-03-03T12:28:30.872Z,1.55
2019-03-03T12:31:13.265Z,1.07
2019-03-03T12:34:06.043Z,1.60
2019-03-03T12:37:08.791Z,1.40
2019-03-03T12:40:12.960Z,1.67
2019-03-03T12:43:16.723Z,1.42
2019-03-03T12:46:17.662Z,1.70
2019-03-03T12:49:18.396Z,1.32
2019-03-03T12:52:19.903Z,1.40
2019-03-03T12:55:23.590Z,1.40
2019-03-03T12:58:12.594Z,1.47
2019-03-03T13:01:15.362Z,1.37
2019-03-03T13:04:22.144Z,1.77
2019-03-03T13:07:22.514Z,1.62
2019-03-03T13:10:26.634Z,1.50
2019-03-03T13:13:33.521Z,1.42
2019-03-03T13:16:34.100Z,1.40
2019-03-03T13:19:16.872Z,1.47
2019-03-03T13:28:08.812Z,1.52
2019-03-03T13:31:04.605Z,2.10
2019-03-03T13:34:06.522Z,1.40
2019-03-03T13:36:49.325Z,1.30
2019-03-03T13:39:43.979Z,1.37
2019-03-03T13:42:26.850Z,1.40
2019-03-03T13:45:10.859Z,1.27
2019-03-03T13:47:53.009Z,1.30
2019-03-03T13:50:35.104Z,1.23
2019-03-03T13:53:17.813Z,1.20
2019-03-03T13:55:59.753Z,1.30
2019-03-03T13:58:42.044Z,1.30
2019-03-03T14:01:23.798Z,1.10
2019-03-03T14:04:06.227Z,1.60
2019-03-03T14:06:49.398Z,1.40
2019-03-03T14:09:33.496Z,0.90
2019-03-03T14:12:18.832Z,1.03
2019-03-03T14:15:01.144Z,1.30
2019-03-03T14:17:43.302Z,1.70
2019-03-03T14:20:25.034Z,1.23
2019-03-03T14:23:07.931Z,1.30
2019-03-03T14:25:51.730Z,1.43
2019-03-03T14:28:34.410Z,1.60
2019-03-03T14:31:16.420Z,1.20
2019-03-03T14:33:58.233Z,1.45
2019-03-03T14:36:41.061Z,1.57
2019-03-03T14:39:22.902Z,1.30
2019-03-03T14:42:04.707Z,1.20
2019-03-03T14:44:46.432Z,1.00
2019-03-03T14:50:37.041Z,1.50
2019-03-03T14:53:18.554Z,1.73
2019-03-03T14:56:01.987Z,1.23
2019-03-03T14:58:43.283Z,0.90
2019-03-03T15:01:25.641Z,1.40
2019-03-03T15:04:06.929Z,1.40
2019-03-03T15:06:47.578Z,1.20
2019-03-03T15:12:16.892Z,1.00
2019-03-03T15:14:57.552Z,1.37
2019-03-03T15:17:40.034Z,1.33
2019-03-03T15:20:21.648Z,1.27
2019-03-03T15:23:03.328Z,1.40
2019-03-03T15:25:45.253Z,1.50
2019-03-03T15:28:27.017Z,1.50
2019-03-03T15:31:10.643Z,1.20
2019-03-03T15:33:54.745Z,1.13
2019-03-03T15:36:38.888Z,1.03
2019-03-03T15:39:22.710Z,1.30
2019-03-03T15:42:04.696Z,1.10
2019-03-03T15:44:46.990Z,1.20
2019-03-03T15:47:30.771Z,1.20
2019-03-03T15:50:13.035Z,1.40
2019-03-03T15:52:54.619Z,1.40
2019-03-03T15:55:36.405Z,1.07
2019-03-03T15:58:21.987Z,1.60
2019-03-03T16:01:03.939Z,1.57
2019-03-03T16:03:47.834Z,1.30
2019-03-03T16:06:29.676Z,1.50
2019-03-03T16:09:16.445Z,1.60
2019-03-03T16:11:58.530Z,1.50
2019-03-03T16:14:40.797Z,1.30
2019-03-03T16:17:24.644Z,1.30
2019-03-03T16:20:08.568Z,1.47
2019-03-03T16:22:50.331Z,1.70
2019-03-03T16:25:32.394Z,1.83
2019-03-03T16:28:15.274Z,1.60
2019-03-03T16:30:57.205Z,1.17
2019-03-03T16:33:39.821Z,1.57
2019-03-03T16:36:23.973Z,1.80
2019-03-03T16:39:06.355Z,2.07
2019-03-03T16:41:48.484Z,1.63
2019-03-03T16:44:31.490Z,1.70
2019-03-03T16:47:13.358Z,1.80
2019-03-03T16:49:55.434Z,1.50
2019-03-03T16:52:36.941Z,1.67
2019-03-03T16:55:19.681Z,1.90
2019-03-03T16:58:01.852Z,2.00
2019-03-03T17:00:43.833Z,1.53
2019-03-03T17:03:25.741Z,2.00
2019-03-03T17:06:07.621Z,1.60
2019-03-03T17:08:50.515Z,1.50
2019-03-03T17:11:33.377Z,1.67
2019-03-03T17:14:15.446Z,3.20
2019-03-03T17:16:58.654Z,17.47
2019-03-03T17:19:42.600Z,14.77
2019-03-03T17:22:24.469Z,4.43
2019-03-03T17:25:06.509Z,4.17
2019-03-03T17:27:48.092Z,5.58
2019-03-03T17:30:29.934Z,4.47
2019-03-03T17:33:12.932Z,5.50
2019-03-03T17:35:57.028Z,4.93
2019-03-03T17:38:39.998Z,6.00
2019-03-03T17:41:21.869Z,5.93
2019-03-03T17:44:03.799Z,6.43
2019-03-03T17:46:45.497Z,6.33
2019-03-03T17:49:27.438Z,6.63
2019-03-03T17:54:51.909Z,7.20
2019-03-03T17:57:33.789Z,7.10
2019-03-03T18:00:18.351Z,7.53
2019-03-03T18:03:00.041Z,6.43
2019-03-03T18:05:44.265Z,7.92
2019-03-03T18:08:26.396Z,7.33
2019-03-03T18:11:08.302Z,6.70
2019-03-03T18:13:51.105Z,8.00
2019-03-03T18:16:35.412Z,7.50
2019-03-03T18:19:17.274Z,7.37
2019-03-03T18:22:01.085Z,8.20
2019-03-03T18:24:45.141Z,8.27
2019-03-03T18:27:27.245Z,8.50
2019-03-03T18:30:09.384Z,8.23
2019-03-03T18:32:51.284Z,8.50
2019-03-03T18:35:33.346Z,7.77
2019-03-03T18:38:15.437Z,6.57
2019-03-03T18:40:57.341Z,8.67
2019-03-03T18:43:39.001Z,7.13
2019-03-03T18:46:21.737Z,5.90
2019-03-03T18:49:03.789Z,9.03
2019-03-03T18:51:46.106Z,8.13
2019-03-03T18:54:27.764Z,7.53
2019-03-03T18:57:09.401Z,6.70
2019-03-03T18:59:51.342Z,5.87
2019-03-03T19:02:34.172Z,5.70
2019-03-03T19:05:17.832Z,6.73
2019-03-03T19:08:01.133Z,8.33
2019-03-03T19:10:43.155Z,7.63
2019-03-03T19:13:24.952Z,7.60
2019-03-03T19:16:06.930Z,8.17
2019-03-03T19:18:50.653Z,8.93
2019-03-03T19:21:32.854Z,7.20
2019-03-03T19:24:15.874Z,7.33
2019-03-03T19:26:58.036Z,6.97
2019-03-03T19:29:41.436Z,9.37
2019-03-03T19:32:23.342Z,8.13
2019-03-03T19:35:05.714Z,8.03
2019-03-03T19:37:49.563Z,7.60
2019-03-03T19:40:32.504Z,6.57
2019-03-03T19:43:14.437Z,5.33
2019-03-03T19:45:57.357Z,5.67
2019-03-03T19:48:39.276Z,5.60
2019-03-03T19:51:21.470Z,5.37
2019-03-03T19:54:03.221Z,5.58
2019-03-03T19:56:47.339Z,5.47
2019-03-03T19:59:29.222Z,5.67
2019-03-03T20:02:12.219Z,5.73
2019-03-03T20:04:56.103Z,5.23
2019-03-03T20:07:38.924Z,5.10
2019-03-03T20:10:20.914Z,5.67
2019-03-03T20:13:02.997Z,10.40
2019-03-03T20:15:45.132Z,11.73
2019-03-03T20:18:27.012Z,7.73
2019-03-03T20:21:08.729Z,7.50
2019-03-03T20:23:50.778Z,6.10
2019-03-03T20:26:33.839Z,5.90
2019-03-03T20:29:15.683Z,5.57
2019-03-03T20:31:58.226Z,6.37
2019-03-03T20:34:40.068Z,5.73
2019-03-03T20:37:22.223Z,5.27
2019-03-03T20:40:04.737Z,5.00
2019-03-03T20:42:47.421Z,5.37
2019-03-03T20:45:29.194Z,6.43
2019-03-03T20:48:12.084Z,6.23
2019-03-03T20:50:56.146Z,5.20
2019-03-03T20:53:40.523Z,5.63
2019-03-03T20:56:24.740Z,7.10
2019-03-03T20:59:06.840Z,7.87
2019-03-03T21:01:49.749Z,6.77
2019-03-03T21:04:33.536Z,7.90
2019-03-03T21:07:15.499Z,6.90
2019-03-03T21:09:57.790Z,7.07
2019-03-03T21:12:40.388Z,7.67
2019-03-03T21:15:22.082Z,6.57
2019-03-03T21:18:04.978Z,6.50
2019-03-03T21:20:49.023Z,7.67
2019-03-03T21:23:32.076Z,6.30
2019-03-03T21:26:16.012Z,6.80
2019-03-03T21:28:58.062Z,7.87
2019-03-03T21:31:41.869Z,6.90
2019-03-03T21:34:24.686Z,6.47
2019-03-03T21:37:08.394Z,8.37
2019-03-03T21:39:51.490Z,7.17
2019-03-03T21:42:35.556Z,6.20
2019-03-03T21:45:19.525Z,5.87
2019-03-03T21:48:03.393Z,6.33
2019-03-03T21:50:47.443Z,6.83
2019-03-03T21:53:29.878Z,6.20
2019-03-03T21:56:11.466Z,6.33
2019-03-03T21:58:53.430Z,6.30
2019-03-03T22:01:35.507Z,7.10
2019-03-03T22:04:17.420Z,7.33
2019-03-03T22:06:59.084Z,7.13
2019-03-03T22:09:42.935Z,6.47
2019-03-03T22:12:25.056Z,6.43
2019-03-03T22:15:08.139Z,6.03
2019-03-03T22:17:50.050Z,6.00
2019-03-03T22:20:32.070Z,5.57
2019-03-03T22:23:13.941Z,4.83
2019-03-03T22:25:56.156Z,4.30
2019-03-03T22:28:38.046Z,4.60
2019-03-03T22:31:20.048Z,3.77
2019-03-03T22:34:02.107Z,5.00
2019-03-03T22:36:45.032Z,4.13
2019-03-03T22:39:27.102Z,4.90
2019-03-03T22:42:11.597Z,4.00
2019-03-03T22:44:53.978Z,3.53
2019-03-03T22:47:37.922Z,3.80
2019-03-03T22:50:22.080Z,4.70
2019-03-03T22:53:04.125Z,4.03
2019-03-03T22:55:47.205Z,4.07
2019-03-03T22:58:29.055Z,4.53
2019-03-03T23:01:12.051Z,5.80
2019-03-03T23:03:55.917Z,5.27
2019-03-03T23:06:38.184Z,4.73
2019-03-03T23:09:20.008Z,5.03
2019-03-03T23:12:01.960Z,5.57
2019-03-03T23:14:43.845Z,5.07
2019-03-03T23:17:26.805Z,4.90
2019-03-03T23:20:09.098Z,5.13
2019-03-03T23:22:51.075Z,4.60
2019-03-03T23:25:33.049Z,3.47
2019-03-03T23:28:15.931Z,4.43
2019-03-03T23:30:57.958Z,7.63
2019-03-03T23:33:40.240Z,6.67
2019-03-03T23:36:22.145Z,6.23
2019-03-03T23:39:05.106Z,5.73
2019-03-03T23:41:49.999Z,6.47
2019-03-03T23:44:33.061Z,5.20
2019-03-03T23:47:17.097Z,4.87
2019-03-03T23:50:01.258Z,5.83
2019-03-03T23:52:45.480Z,5.80
2019-03-03T23:55:29.610Z,5.27
2019-03-03T23:58:13.270Z,5.30
